Modena, Utah
Current Conditions -  °F | °C
As of 9:53 AM on Friday 24 Oct 2014 (Local Time) from KCDC Reporting Station
Clear Clear  
Wind Chill: 60°   Ceiling: Unl
Heat Index: 60°   Visibility: 10mi
Dew Point: 33°   Wind: 0mph
Humidity: 36%   Direction: NA
Pressure: 30.29"   Gusts: NA
Location:  37.8°N, 113.93°W
Report Text: KCDC 241553Z AUTO 00000KT 10SM CLR 16/01 A3029 RMK AO2 SLP214 T01560006 TSNO
Loading
Personal Weather Stations






























Interactive Weather Map
Tropical Storm Tracking
New forecast layout! Learn more

10-Day Weather Forecast

Advertisements
Track Severe Weather on mobile